createdAt,value
2022-11-22T07:49:14.955Z,1.40
2022-11-22T07:51:41.743Z,1.48
2022-11-22T07:54:09.985Z,1.30
2022-11-22T07:56:39.030Z,1.26
2022-11-22T07:59:05.383Z,1.15
2022-11-22T08:01:31.775Z,1.33
2022-11-22T08:03:58.385Z,1.42
2022-11-22T08:06:24.777Z,1.55
2022-11-22T08:08:51.741Z,1.48
2022-11-22T08:11:20.085Z,1.40
2022-11-22T08:13:46.571Z,1.41
2022-11-22T08:16:15.327Z,1.40
2022-11-22T08:18:41.866Z,1.50
2022-11-22T08:21:11.796Z,1.48
2022-11-22T08:23:38.137Z,1.36
2022-11-22T08:26:04.607Z,1.37
2022-11-22T08:28:33.980Z,1.36
2022-11-22T08:31:00.480Z,1.39
2022-11-22T08:33:27.032Z,1.49
2022-11-22T08:35:53.482Z,1.25
2022-11-22T08:38:19.842Z,1.34
2022-11-22T08:40:46.174Z,1.17
2022-11-22T08:43:12.530Z,1.34
2022-11-22T08:45:38.898Z,1.50
2022-11-22T08:48:05.678Z,1.47
2022-11-22T08:50:32.107Z,1.40
2022-11-22T08:52:58.623Z,1.18
2022-11-22T08:55:25.044Z,1.48
2022-11-22T08:57:51.476Z,1.22
2022-11-22T09:00:17.954Z,1.30
2022-11-22T09:02:44.449Z,1.22
2022-11-22T09:05:11.832Z,1.32
2022-11-22T09:10:24.702Z,1.29
2022-11-22T09:12:51.145Z,1.37
2022-11-22T09:15:18.647Z,1.35
2022-11-22T09:17:45.133Z,1.36
2022-11-22T09:20:11.557Z,1.29
2022-11-22T09:22:37.913Z,1.23
2022-11-22T09:25:04.369Z,1.28
2022-11-22T09:27:31.124Z,1.14
2022-11-22T09:29:58.556Z,1.36
2022-11-22T09:32:29.353Z,1.24
2022-11-22T09:35:00.101Z,1.12
2022-11-22T09:37:26.468Z,1.39
2022-11-22T09:39:52.815Z,1.16
2022-11-22T09:42:19.380Z,1.12
2022-11-22T09:44:45.942Z,1.19
2022-11-22T09:47:12.375Z,1.15
2022-11-22T09:49:38.928Z,1.07
2022-11-22T09:52:05.390Z,1.16
2022-11-22T09:54:31.743Z,1.16
2022-11-22T09:56:58.625Z,1.18
2022-11-22T09:59:26.507Z,1.10
2022-11-22T10:01:52.988Z,1.11
2022-11-22T10:04:19.618Z,1.27
2022-11-22T10:06:46.067Z,1.18
2022-11-22T10:09:12.659Z,1.37
2022-11-22T10:11:39.332Z,1.12
2022-11-22T10:14:05.836Z,1.20
2022-11-22T10:16:32.264Z,1.30
2022-11-22T10:18:58.702Z,1.42
2022-11-22T10:21:25.260Z,1.36
2022-11-22T10:23:51.613Z,1.33
2022-11-22T10:26:17.966Z,1.47
2022-11-22T10:28:44.321Z,1.34
2022-11-22T10:31:10.777Z,1.39
2022-11-22T10:33:42.855Z,1.26
2022-11-22T10:36:10.788Z,1.28
2022-11-22T10:38:37.465Z,1.34
2022-11-22T10:41:05.360Z,1.48
2022-11-22T10:43:31.795Z,1.36
2022-11-22T10:45:58.159Z,1.32
2022-11-22T10:48:24.551Z,1.12
2022-11-22T10:50:50.930Z,1.33
2022-11-22T10:53:17.305Z,1.41
2022-11-22T10:55:43.899Z,1.40
2022-11-22T10:58:10.329Z,1.17
2022-11-22T11:00:36.695Z,1.34
2022-11-22T11:03:03.144Z,1.21
2022-11-22T11:05:29.999Z,1.29
2022-11-22T11:08:04.123Z,1.06
2022-11-22T11:10:44.283Z,1.19
2022-11-22T11:13:10.888Z,1.32
2022-11-22T11:15:37.767Z,1.13
2022-11-22T11:18:04.150Z,1.22
2022-11-22T11:20:31.080Z,1.13
2022-11-22T11:25:43.893Z,1.03
2022-11-22T11:28:10.717Z,1.23
2022-11-22T11:30:37.061Z,1.08
2022-11-22T11:33:03.704Z,1.09
2022-11-22T11:35:30.087Z,0.94
2022-11-22T11:37:56.737Z,0.99
2022-11-22T11:40:23.210Z,1.20
2022-11-22T11:42:49.798Z,0.90
2022-11-22T11:45:16.230Z,0.87
2022-11-22T11:47:42.593Z,0.88
2022-11-22T11:50:11.257Z,0.86
2022-11-22T11:52:37.808Z,1.02
2022-11-22T11:55:04.138Z,0.95
2022-11-22T11:57:30.502Z,1.00
2022-11-22T11:59:56.857Z,0.72
2022-11-22T12:02:23.349Z,0.94
2022-11-22T12:04:49.996Z,0.96
2022-11-22T12:07:16.674Z,0.81
2022-11-22T12:09:43.388Z,0.87
2022-11-22T12:12:10.125Z,0.77
2022-11-22T12:17:26.428Z,0.80
2022-11-22T12:22:49.331Z,0.66
2022-11-22T12:28:03.313Z,0.60
2022-11-22T12:30:30.070Z,1.03
2022-11-22T12:32:56.577Z,0.61
2022-11-22T12:35:23.057Z,0.63
2022-11-22T12:37:50.005Z,0.59
2022-11-22T12:40:17.650Z,0.54
2022-11-22T12:42:44.215Z,0.53
2022-11-22T12:45:11.001Z,0.59
2022-11-22T12:47:37.445Z,0.52
2022-11-22T12:48:22.464Z,0.70
2022-11-22T12:48:24.033Z,0.76
2022-11-22T12:50:04.068Z,0.69
2022-11-22T12:52:30.622Z,0.57
2022-11-22T12:54:57.014Z,0.50
2022-11-22T12:57:23.374Z,0.51
2022-11-22T12:59:49.953Z,0.61
2022-11-22T13:02:16.927Z,0.49
2022-11-22T13:04:43.293Z,0.69
2022-11-22T13:07:09.758Z,0.58
2022-11-22T13:09:38.746Z,0.95
2022-11-22T13:12:05.176Z,0.47
2022-11-22T13:14:34.757Z,0.63
2022-11-22T13:17:01.705Z,0.60
2022-11-22T13:19:28.190Z,1.15
2022-11-22T13:21:54.743Z,0.70
2022-11-22T13:24:21.197Z,0.56
2022-11-22T13:26:47.957Z,0.49
2022-11-22T13:29:14.502Z,0.60
2022-11-22T13:31:41.271Z,0.63
2022-11-22T13:34:07.910Z,0.59
2022-11-22T13:36:34.248Z,0.82
2022-11-22T13:39:00.664Z,0.61
2022-11-22T13:41:27.251Z,0.65
2022-11-22T13:43:53.803Z,0.55
2022-11-22T13:46:20.390Z,0.62
2022-11-22T13:48:47.896Z,0.60
2022-11-22T13:51:16.844Z,0.57
2022-11-22T13:53:44.172Z,0.74
2022-11-22T13:56:11.982Z,0.65
2022-11-22T13:58:38.660Z,0.73
2022-11-22T14:01:05.097Z,0.68
2022-11-22T14:03:31.767Z,0.63
2022-11-22T14:05:58.575Z,0.55
2022-11-22T14:08:24.945Z,0.64
2022-11-22T14:10:51.403Z,0.66
2022-11-22T14:13:17.785Z,0.62
2022-11-22T14:15:44.140Z,0.67
2022-11-22T14:18:10.450Z,0.72
2022-11-22T14:20:36.807Z,0.78
2022-11-22T14:29:35.608Z,0.72
2022-11-22T14:39:05.589Z,0.83
2022-11-22T14:41:31.968Z,0.89
2022-11-22T14:43:58.391Z,0.83
2022-11-22T14:46:51.833Z,0.76
2022-11-22T14:49:13.648Z,0.76
2022-11-22T14:51:40.013Z,0.70
2022-11-22T14:54:07.411Z,0.52
2022-11-22T14:56:33.797Z,0.67
2022-11-22T14:59:00.471Z,0.80
2022-11-22T15:01:27.943Z,0.74
2022-11-22T15:09:10.286Z,0.82
2022-11-22T15:09:21.293Z,0.64
2022-11-22T15:09:45.079Z,0.69
2022-11-22T15:12:14.448Z,0.80
2022-11-22T15:14:41.031Z,0.70
2022-11-22T15:59:02.467Z,0.94
2022-11-22T16:01:28.850Z,0.86
2022-11-22T16:03:55.393Z,0.85
2022-11-22T16:06:21.928Z,0.96
2022-11-22T16:08:48.421Z,0.93
2022-11-22T16:11:15.129Z,0.90
2022-11-22T16:13:45.498Z,0.87
2022-11-22T16:16:12.923Z,0.84
2022-11-22T16:18:39.335Z,0.92
2022-11-22T16:21:05.817Z,0.91
2022-11-22T16:23:32.178Z,0.86
2022-11-22T16:25:58.528Z,0.87
2022-11-22T16:42:31.327Z,1.10
2022-11-22T16:45:03.575Z,0.94
2022-11-22T16:47:31.742Z,0.93
2022-11-22T16:49:58.148Z,0.95
2022-11-22T16:52:24.635Z,1.22
2022-11-22T16:54:51.122Z,1.24
2022-11-22T16:57:17.842Z,1.45
2022-11-22T16:59:47.323Z,1.73
2022-11-22T17:02:14.322Z,1.11
2022-11-22T17:04:41.344Z,1.37
2022-11-22T17:07:07.862Z,1.51
2022-11-22T17:09:34.516Z,1.41
2022-11-22T17:12:01.234Z,1.21
2022-11-22T17:14:27.562Z,1.14
2022-11-22T17:16:53.931Z,1.07
2022-11-22T17:22:07.107Z,1.17
2022-11-22T17:24:33.976Z,1.07
2022-11-22T17:27:00.415Z,1.18
2022-11-22T17:29:49.258Z,1.40
2022-11-22T17:32:15.702Z,1.44
2022-11-22T17:34:42.317Z,1.44
2022-11-22T17:37:08.681Z,1.23
2022-11-22T17:39:35.125Z,1.28
2022-11-22T17:42:01.495Z,1.15
2022-11-22T17:44:28.078Z,1.25
2022-11-22T17:46:54.633Z,1.36
2022-11-22T17:49:21.005Z,1.29
2022-11-22T17:51:47.376Z,1.37
2022-11-22T17:54:13.719Z,1.45
2022-11-22T17:56:40.386Z,1.21
2022-11-22T17:59:06.774Z,1.35
2022-11-22T18:01:33.467Z,1.26
2022-11-22T18:03:59.790Z,1.37
2022-11-22T18:06:26.417Z,1.51
2022-11-22T18:08:52.983Z,1.47
2022-11-22T18:11:20.372Z,1.45
2022-11-22T18:13:47.119Z,1.41
2022-11-22T18:16:13.569Z,1.48
2022-11-22T18:18:56.310Z,1.59
2022-11-22T18:21:23.726Z,1.34
2022-11-22T18:23:50.326Z,1.24
2022-11-22T18:29:35.653Z,1.36
2022-11-22T18:31:53.555Z,1.55
2022-11-22T18:34:20.817Z,1.44
2022-11-22T18:36:55.987Z,1.40
2022-11-22T18:39:26.051Z,1.48
2022-11-22T18:41:52.421Z,1.63
2022-11-22T18:44:19.616Z,1.54
2022-11-22T18:46:45.987Z,1.35
2022-11-22T18:49:12.338Z,1.47
2022-11-22T18:51:39.174Z,1.68
2022-11-22T18:54:06.475Z,1.78
2022-11-22T18:59:13.202Z,1.80
2022-11-22T19:01:39.646Z,1.94
2022-11-22T19:04:06.090Z,1.86
2022-11-22T19:06:34.400Z,2.06
2022-11-22T19:09:00.798Z,1.95
2022-11-22T19:11:27.500Z,1.70
2022-11-22T19:13:53.937Z,2.14
2022-11-22T19:16:20.270Z,2.14
2022-11-22T19:18:46.581Z,2.32
2022-11-22T19:21:13.084Z,3.31
2022-11-22T19:23:39.402Z,26.90
2022-11-22T19:26:05.822Z,21.43
2022-11-22T19:28:32.495Z,3.46
2022-11-22T19:31:00.449Z,2.73
2022-11-22T19:33:26.879Z,2.14
2022-11-22T19:35:53.649Z,2.45
2022-11-22T19:38:20.035Z,2.52
2022-11-22T19:43:30.905Z,2.29
2022-11-22T19:45:58.351Z,2.38
2022-11-22T19:48:27.081Z,2.18
2022-11-22T19:50:53.453Z,2.09
2022-11-22T19:53:19.836Z,2.14
2022-11-22T19:55:46.201Z,1.90
2022-11-22T19:58:13.871Z,1.97
2022-11-22T20:00:40.249Z,1.83
2022-11-22T20:03:09.054Z,1.87
2022-11-22T20:05:35.430Z,2.17
2022-11-22T20:08:01.770Z,2.28
2022-11-22T20:10:28.410Z,2.14
2022-11-22T20:12:57.693Z,2.07
2022-11-22T20:15:24.138Z,2.21
2022-11-22T20:17:50.696Z,2.07
2022-11-22T20:20:19.768Z,2.08
2022-11-22T20:22:46.317Z,2.35
2022-11-22T20:25:12.937Z,2.20
2022-11-22T20:27:41.830Z,2.09
2022-11-22T20:30:08.202Z,2.02
2022-11-22T20:32:34.594Z,2.19
2022-11-22T20:35:03.477Z,2.26
2022-11-22T20:37:29.872Z,2.65
2022-11-22T20:39:58.770Z,2.56
2022-11-22T20:42:40.519Z,2.38
2022-11-22T20:45:10.277Z,2.74
2022-11-22T20:47:36.881Z,2.45
2022-11-22T20:50:07.435Z,2.47
2022-11-22T20:52:33.826Z,2.65
2022-11-22T20:55:05.036Z,2.85
2022-11-22T20:57:33.828Z,2.83
2022-11-22T21:00:00.512Z,2.97
2022-11-22T21:02:29.144Z,2.74
2022-11-22T21:04:55.719Z,3.00
2022-11-22T21:07:22.102Z,2.72
2022-11-22T21:09:48.443Z,2.54
2022-11-22T21:12:14.850Z,2.41
2022-11-22T21:14:41.550Z,2.44
2022-11-22T21:17:37.199Z,2.40
2022-11-22T21:19:54.356Z,2.40
2022-11-22T21:22:20.741Z,2.43
2022-11-22T21:33:31.787Z,2.33
2022-11-22T21:36:01.431Z,1.99
2022-11-22T23:40:14.595Z,1.05
2022-11-22T23:42:41.043Z,0.97
2022-11-22T23:45:07.405Z,1.03
2022-11-22T23:47:34.785Z,1.07
2022-11-22T23:50:02.179Z,2.63
2022-11-22T23:52:28.517Z,3.33
2022-11-22T23:54:54.877Z,1.74
2022-11-22T23:57:21.232Z,1.44
2022-11-22T23:59:47.596Z,1.42
